createdAt,value
2019-05-13T00:00:25.360Z,102108.47
2019-05-13T00:04:27.905Z,102114.52
2019-05-13T00:08:30.125Z,102125.64
2019-05-13T00:12:32.221Z,102127.20
2019-05-13T00:16:34.458Z,102140.30
2019-05-13T00:20:36.837Z,102143.16
2019-05-13T00:24:38.918Z,102138.05
2019-05-13T00:28:41.208Z,102146.63
2019-05-13T00:32:44.647Z,102149.76
2019-05-13T00:36:47.147Z,102144.89
2019-05-13T00:40:49.348Z,102152.29
2019-05-13T00:44:53.232Z,102154.98
2019-05-13T00:48:55.349Z,102156.54
2019-05-13T00:52:57.759Z,102164.42
2019-05-13T00:57:00.004Z,102158.63
2019-05-13T01:01:03.592Z,102171.64
2019-05-13T01:05:06.790Z,102178.45
2019-05-13T01:09:09.577Z,102179.59
2019-05-13T01:13:13.617Z,102189.27
2019-05-13T01:17:15.906Z,102180.04
2019-05-13T01:21:18.010Z,102187.34
2019-05-13T01:25:20.228Z,102194.70
2019-05-13T01:29:23.812Z,102205.51
2019-05-13T01:33:26.329Z,102198.86
2019-05-13T01:37:41.948Z,102188.14
2019-05-13T01:41:33.380Z,102194.45
2019-05-13T01:45:35.825Z,102198.88
2019-05-13T01:49:38.015Z,102206.81
2019-05-13T01:53:40.147Z,102218.69
2019-05-13T01:57:44.348Z,102231.98
2019-05-13T02:01:46.190Z,102236.08
2019-05-13T02:05:48.352Z,102232.64
2019-05-13T02:09:52.945Z,102241.98
2019-05-13T02:13:54.813Z,102244.02
2019-05-13T02:17:56.934Z,102240.56
2019-05-13T02:21:59.111Z,102236.92
2019-05-13T02:26:01.355Z,102242.14
2019-05-13T02:30:05.468Z,102244.78
2019-05-13T02:34:07.465Z,102242.11
2019-05-13T02:38:19.549Z,102246.84
2019-05-13T02:42:13.759Z,102250.64
2019-05-13T02:46:15.965Z,102249.77
2019-05-13T02:50:18.242Z,102243.58
2019-05-13T02:54:22.884Z,102242.94
2019-05-13T02:58:25.582Z,102246.34
2019-05-13T03:02:27.920Z,102248.72
2019-05-13T03:06:33.219Z,102259.50
2019-05-13T03:10:34.235Z,102267.02
2019-05-13T03:14:36.323Z,102267.37
2019-05-13T03:18:38.633Z,102263.41
2019-05-13T03:22:43.366Z,102262.64
2019-05-13T03:26:44.856Z,102278.71
2019-05-13T03:30:47.260Z,102279.79
2019-05-13T03:34:55.161Z,102286.19
2019-05-13T03:39:05.122Z,102286.09
2019-05-13T03:43:02.665Z,102295.47
2019-05-13T03:47:05.202Z,102291.84
2019-05-13T03:51:07.367Z,102293.31
2019-05-13T03:55:12.770Z,102304.25
2019-05-13T03:59:14.365Z,102306.63
2019-05-13T04:03:16.839Z,102307.83
2019-05-13T04:07:19.125Z,102308.89
2019-05-13T04:11:22.574Z,102307.53
2019-05-13T04:15:24.999Z,102307.08
2019-05-13T04:19:27.754Z,102300.77
2019-05-13T04:23:32.287Z,102304.30
2019-05-13T04:27:33.992Z,102305.16
2019-05-13T04:31:36.315Z,102303.42
2019-05-13T04:35:38.853Z,102302.29
2019-05-13T04:39:50.012Z,102310.91
2019-05-13T04:43:45.350Z,102318.33
2019-05-13T04:47:47.640Z,102315.23
2019-05-13T04:51:52.306Z,102310.61
2019-05-13T04:55:54.165Z,102310.22
2019-05-13T04:59:56.445Z,102318.67
2019-05-13T05:04:11.707Z,102325.14
2019-05-13T05:08:48.138Z,102336.35
2019-05-13T05:13:12.798Z,102327.14
2019-05-13T05:17:53.081Z,102326.46
2019-05-13T05:22:13.271Z,102331.80
2019-05-13T05:26:53.785Z,102335.09
2019-05-13T05:31:34.976Z,102331.71
2019-05-13T05:36:13.823Z,102339.66
2019-05-13T05:40:30.968Z,102345.03
2019-05-13T05:44:24.833Z,102347.95
2019-05-13T05:48:31.376Z,102354.17
2019-05-13T05:52:34.888Z,102348.08
2019-05-13T05:56:41.475Z,102347.45
2019-05-13T06:00:44.660Z,102345.31
2019-05-13T06:04:51.999Z,102360.30
2019-05-13T06:08:54.293Z,102355.22
2019-05-13T06:12:56.993Z,102355.68
2019-05-13T06:16:59.122Z,102366.91
2019-05-13T06:21:01.817Z,102368.53
2019-05-13T06:25:04.096Z,102361.83
2019-05-13T06:29:06.572Z,102356.61
2019-05-13T06:33:08.786Z,102359.91
2019-05-13T06:37:11.549Z,102357.11
2019-05-13T06:41:14.824Z,102353.49
2019-05-13T06:45:17.358Z,102356.28
2019-05-13T06:49:21.499Z,102351.64
2019-05-13T06:53:23.196Z,102352.88
2019-05-13T06:57:25.170Z,102354.69
2019-05-13T07:01:28.473Z,102357.52
2019-05-13T07:05:31.819Z,102346.11
2019-05-13T07:09:33.794Z,102349.57
2019-05-13T07:13:35.955Z,102349.81
2019-05-13T07:17:38.166Z,102357.18
2019-05-13T07:21:41.735Z,102353.68
2019-05-13T07:25:44.214Z,102355.20
2019-05-13T07:29:46.069Z,102347.73
2019-05-13T07:33:48.193Z,102343.27
2019-05-13T07:37:51.750Z,102339.44
2019-05-13T07:41:54.065Z,102341.28
2019-05-13T07:45:56.291Z,102340.53
2019-05-13T07:49:58.500Z,102339.95
2019-05-13T07:54:02.188Z,102347.97
2019-05-13T07:58:04.433Z,102345.13
2019-05-13T08:02:06.476Z,102348.30
2019-05-13T08:06:08.465Z,102352.16
2019-05-13T08:10:11.665Z,102359.28
2019-05-13T08:14:15.054Z,102357.33
2019-05-13T08:18:17.595Z,102355.80
2019-05-13T08:22:22.091Z,102358.64
2019-05-13T08:26:23.265Z,102359.05
2019-05-13T08:30:25.723Z,102359.52
2019-05-13T08:34:27.958Z,102361.67
2019-05-13T08:38:31.874Z,102363.93
2019-05-13T08:42:33.764Z,102371.61
2019-05-13T08:46:36.071Z,102355.69
2019-05-13T08:50:38.235Z,102360.59
2019-05-13T08:54:41.858Z,102353.62
2019-05-13T08:58:44.122Z,102350.89
2019-05-13T09:02:46.234Z,102346.27
2019-05-13T09:06:48.577Z,102345.45
2019-05-13T09:10:52.043Z,102339.83
2019-05-13T09:14:54.651Z,102335.94
2019-05-13T09:18:56.681Z,102339.84
2019-05-13T09:23:02.026Z,102347.28
2019-05-13T09:27:04.113Z,102335.73
2019-05-13T09:31:06.248Z,102357.88
2019-05-13T09:35:08.596Z,102349.64
2019-05-13T09:39:12.610Z,102343.80
2019-05-13T09:43:14.598Z,102343.53
2019-05-13T09:47:16.683Z,102341.63
2019-05-13T09:51:18.781Z,102352.27
2019-05-13T09:55:26.389Z,102355.37
2019-05-13T09:59:24.969Z,102350.65
2019-05-13T10:03:29.671Z,102359.60
2019-05-13T10:07:31.889Z,102350.11
2019-05-13T10:11:34.114Z,102349.09
2019-05-13T10:15:36.390Z,102348.45
2019-05-13T10:19:38.631Z,102348.87
2019-05-13T10:23:41.776Z,102344.20
2019-05-13T10:27:44.434Z,102347.68
2019-05-13T10:31:46.778Z,102345.88
2019-05-13T10:35:52.314Z,102337.87
2019-05-13T10:39:56.230Z,102346.99
2019-05-13T10:43:58.393Z,102353.53
2019-05-13T10:48:02.808Z,102355.57
2019-05-13T10:52:04.609Z,102356.75
2019-05-13T10:56:06.842Z,102351.06
2019-05-13T11:00:12.228Z,102355.33
2019-05-13T11:04:14.110Z,102356.66
2019-05-13T11:08:16.104Z,102349.52
2019-05-13T11:12:18.279Z,102353.27
2019-05-13T11:16:22.579Z,102345.04
2019-05-13T11:20:24.777Z,102352.47
2019-05-13T11:24:27.069Z,102357.00
2019-05-13T11:28:29.625Z,102347.91
2019-05-13T11:32:33.029Z,102349.38
2019-05-13T11:36:35.339Z,102354.06
2019-05-13T11:40:37.698Z,102346.58
2019-05-13T11:44:40.064Z,102350.08
2019-05-13T11:48:43.793Z,102352.52
2019-05-13T11:52:45.938Z,102352.09
2019-05-13T11:56:50.461Z,102339.91
2019-05-13T12:00:58.110Z,102336.44
2019-05-13T12:05:03.736Z,102333.89
2019-05-13T12:09:06.044Z,102332.63
2019-05-13T12:13:08.229Z,102331.69
2019-05-13T12:17:14.157Z,102334.83
2019-05-13T12:21:14.416Z,102320.34
2019-05-13T12:25:16.652Z,102321.77
2019-05-13T12:29:19.473Z,102318.92
2019-05-13T12:33:22.694Z,102317.22
2019-05-13T12:37:25.299Z,102312.56
2019-05-13T12:41:28.400Z,102305.73
2019-05-13T12:45:30.814Z,102310.08
2019-05-13T12:49:36.688Z,102306.50
2019-05-13T12:53:37.389Z,102298.82
2019-05-13T12:57:39.664Z,102299.62
2019-05-13T13:01:41.771Z,102301.61
2019-05-13T13:05:44.249Z,102299.89
2019-05-13T13:09:46.290Z,102302.97
2019-05-13T13:13:59.506Z,102296.67
2019-05-13T13:17:54.023Z,102298.75
2019-05-13T13:22:03.295Z,102298.97
2019-05-13T13:26:02.990Z,102293.30
2019-05-13T13:30:08.405Z,102290.71
2019-05-13T13:34:13.573Z,102294.16
2019-05-13T13:38:14.132Z,102299.88
2019-05-13T13:42:16.683Z,102290.19
2019-05-13T13:46:33.918Z,102287.59
2019-05-13T13:50:24.637Z,102289.80
2019-05-13T13:54:26.766Z,102285.68
2019-05-13T13:58:29.443Z,102280.19
2019-05-13T14:02:37.021Z,102285.68
2019-05-13T14:10:41.999Z,102283.20
2019-05-13T14:14:44.144Z,102274.78
2019-05-13T14:18:46.449Z,102272.36
2019-05-13T14:22:57.256Z,102283.14
2019-05-13T14:26:55.132Z,102279.92
2019-05-13T14:30:57.647Z,102281.29
2019-05-13T14:35:01.724Z,102279.02
2019-05-13T14:39:04.915Z,102272.06
2019-05-13T14:43:08.995Z,102274.00
2019-05-13T14:47:22.726Z,102278.14
2019-05-13T14:51:15.149Z,102273.61
2019-05-13T14:55:17.277Z,102278.77
2019-05-13T14:59:21.874Z,102281.37
2019-05-13T15:03:23.703Z,102270.06
2019-05-13T15:07:25.844Z,102269.20
2019-05-13T15:11:28.545Z,102275.08
2019-05-13T15:15:31.677Z,102283.94
2019-05-13T15:19:34.130Z,102282.76
2019-05-13T15:23:36.370Z,102281.33
2019-05-13T15:27:41.334Z,102272.59
2019-05-13T15:31:43.081Z,102280.72
2019-05-13T15:35:45.307Z,102283.31
2019-05-13T15:39:47.656Z,102291.75
2019-05-13T15:43:51.960Z,102295.08
2019-05-13T15:47:54.229Z,102294.31
2019-05-13T15:51:56.377Z,102293.19
2019-05-13T15:55:58.495Z,102278.98
2019-05-13T16:00:01.943Z,102276.11
2019-05-13T16:04:04.502Z,102277.17
2019-05-13T16:08:06.673Z,102275.13
2019-05-13T16:12:08.994Z,102275.76
2019-05-13T16:16:12.192Z,102276.70
2019-05-13T16:20:14.418Z,102281.70
2019-05-13T16:24:16.664Z,102280.56
2019-05-13T16:28:18.933Z,102280.32
2019-05-13T16:32:22.747Z,102285.00
2019-05-13T16:36:25.137Z,102290.18
2019-05-13T16:40:27.259Z,102293.11
2019-05-13T16:44:31.822Z,102295.72
2019-05-13T16:48:33.837Z,102298.67
2019-05-13T16:52:36.152Z,102295.22
2019-05-13T16:56:38.357Z,102299.44
2019-05-13T17:00:42.466Z,102302.38
2019-05-13T17:04:44.499Z,102296.00
2019-05-13T17:08:46.760Z,102305.53
2019-05-13T17:12:49.067Z,102297.32
2019-05-13T17:16:51.872Z,102304.95
2019-05-13T17:20:54.162Z,102306.56
2019-05-13T17:24:56.466Z,102299.59
2019-05-13T17:28:58.697Z,102301.36
2019-05-13T17:33:02.273Z,102303.14
2019-05-13T17:37:04.827Z,102310.86
2019-05-13T17:41:07.151Z,102316.92
2019-05-13T17:45:11.472Z,102323.59
2019-05-13T17:49:14.041Z,102322.50
2019-05-13T17:53:16.085Z,102324.58
2019-05-13T17:57:18.424Z,102329.92
2019-05-13T18:01:21.217Z,102332.77
2019-05-13T18:05:23.685Z,102342.82
2019-05-13T18:09:25.807Z,102339.96
2019-05-13T18:13:28.126Z,102336.13
2019-05-13T18:17:31.186Z,102330.91
2019-05-13T18:21:34.458Z,102332.69
2019-05-13T18:25:36.615Z,102339.30
2019-05-13T18:29:38.938Z,102350.94
2019-05-13T18:33:42.426Z,102343.67
2019-05-13T18:37:44.624Z,102356.17
2019-05-13T18:41:46.828Z,102359.57
2019-05-13T18:45:48.898Z,102352.79
2019-05-13T18:49:52.321Z,102359.98
2019-05-13T18:53:54.516Z,102363.23
2019-05-13T18:57:57.729Z,102365.52
2019-05-13T19:02:01.477Z,102361.59
2019-05-13T19:06:04.809Z,102361.80
2019-05-13T19:10:07.858Z,102368.56
2019-05-13T19:14:12.269Z,102369.36
2019-05-13T19:18:14.076Z,102363.97
2019-05-13T19:22:16.217Z,102360.83
2019-05-13T19:26:18.531Z,102364.58
2019-05-13T19:30:21.285Z,102359.39
2019-05-13T19:34:23.728Z,102359.26
2019-05-13T19:38:25.818Z,102357.91
2019-05-13T19:42:28.072Z,102356.64
2019-05-13T19:46:31.462Z,102361.43
2019-05-13T19:50:33.819Z,102369.51
2019-05-13T19:54:36.114Z,102367.94
2019-05-13T19:58:38.445Z,102363.94
2019-05-13T20:02:42.166Z,102365.33
2019-05-13T20:06:44.619Z,102372.77
2019-05-13T20:10:46.780Z,102369.44
2019-05-13T20:14:48.882Z,102371.11
2019-05-13T20:18:51.807Z,102369.59
2019-05-13T20:22:54.758Z,102376.18
2019-05-13T20:26:56.919Z,102382.58
2019-05-13T20:31:01.649Z,102391.84
2019-05-13T20:35:03.227Z,102398.80
2019-05-13T20:39:06.523Z,102405.11
2019-05-13T20:43:08.790Z,102408.97
2019-05-13T20:47:10.912Z,102412.77
2019-05-13T20:51:13.063Z,102411.61
2019-05-13T20:55:16.518Z,102416.50
2019-05-13T20:59:21.336Z,102419.66
2019-05-13T21:03:22.776Z,102419.91
2019-05-13T21:07:24.898Z,102425.42
2019-05-13T21:11:27.312Z,102418.13
2019-05-13T21:15:31.580Z,102426.91
2019-05-13T21:19:39.121Z,102422.77
2019-05-13T21:23:37.724Z,102418.76
2019-05-13T21:27:41.978Z,102423.18
2019-05-13T21:31:44.633Z,102419.70
2019-05-13T21:35:46.757Z,102411.70
2019-05-13T21:39:48.942Z,102422.02
2019-05-13T21:43:52.068Z,102418.69
2019-05-13T21:47:54.267Z,102423.93
2019-05-13T21:51:56.413Z,102419.20
2019-05-13T21:55:58.654Z,102427.45
2019-05-13T22:00:02.039Z,102424.48
2019-05-13T22:04:05.836Z,102434.30
2019-05-13T22:08:08.073Z,102433.66
2019-05-13T22:12:10.200Z,102425.44
2019-05-13T22:16:12.336Z,102429.61
2019-05-13T22:20:14.634Z,102437.23
2019-05-13T22:24:16.796Z,102436.08
2019-05-13T22:28:19.043Z,102442.03
2019-05-13T22:32:22.020Z,102450.56
2019-05-13T22:36:24.357Z,102454.92
2019-05-13T22:40:26.528Z,102454.92
2019-05-13T22:44:28.784Z,102452.75
2019-05-13T22:48:31.781Z,102451.47
2019-05-13T22:52:34.228Z,102441.89
2019-05-13T22:56:36.665Z,102457.42
2019-05-13T23:00:38.830Z,102458.33
2019-05-13T23:04:43.511Z,102455.27
2019-05-13T23:08:45.546Z,102455.56
2019-05-13T23:12:47.759Z,102461.32
2019-05-13T23:16:50.001Z,102459.23
2019-05-13T23:20:52.218Z,102453.78
2019-05-13T23:24:54.647Z,102455.91
2019-05-13T23:28:57.030Z,102456.78
2019-05-13T23:32:59.325Z,102452.91
2019-05-13T23:37:03.061Z,102454.02
2019-05-13T23:41:05.330Z,102456.36
2019-05-13T23:45:08.142Z,102448.11
2019-05-13T23:49:11.819Z,102448.06
2019-05-13T23:53:14.307Z,102445.88
2019-05-13T23:57:17.832Z,102451.05
